sensor_id;sensor_type;location;lat;lon;timestamp;temperature;humidity
3037;DHT22;1528;52.550;13.408;2023-07-16T14:26:17;26.20;10.00
3037;DHT22;1528;52.550;13.408;2023-07-16T14:29:02;26.20;11.00
3037;DHT22;1528;52.550;13.408;2023-07-16T14:31:48;26.40;11.40
3037;DHT22;1528;52.550;13.408;2023-07-16T14:34:33;26.60;10.60
3037;DHT22;1528;52.550;13.408;2023-07-16T14:37:19;26.80;10.40
3037;DHT22;1528;52.550;13.408;2023-07-16T14:40:06;27.00;10.30
3037;DHT22;1528;52.550;13.408;2023-07-16T14:42:54;27.20;10.10
3037;DHT22;1528;52.550;13.408;2023-07-16T14:45:39;27.30;10.30
3037;DHT22;1528;52.550;13.408;2023-07-16T14:48:25;27.30;9.70
3037;DHT22;1528;52.550;13.408;2023-07-16T14:51:11;27.40;9.60
3037;DHT22;1528;52.550;13.408;2023-07-16T14:53:57;27.50;8.10
3037;DHT22;1528;52.550;13.408;2023-07-16T14:56:42;27.50;7.40
3037;DHT22;1528;52.550;13.408;2023-07-16T14:59:29;27.50;6.80
3037;DHT22;1528;52.550;13.408;2023-07-16T15:02:16;27.50;5.90
3037;DHT22;1528;52.550;13.408;2023-07-16T15:05:01;27.50;6.50
3037;DHT22;1528;52.550;13.408;2023-07-16T15:07:49;27.60;7.30
3037;DHT22;1528;52.550;13.408;2023-07-16T15:10:34;27.60;6.50
3037;DHT22;1528;52.550;13.408;2023-07-16T15:13:21;27.60;4.40
3037;DHT22;1528;52.550;13.408;2023-07-16T15:16:11;27.60;3.50
3037;DHT22;1528;52.550;13.408;2023-07-16T15:18:56;27.60;2.90
3037;DHT22;1528;52.550;13.408;2023-07-16T15:21:43;27.60;3.90
3037;DHT22;1528;52.550;13.408;2023-07-16T15:24:29;27.60;4.40
3037;DHT22;1528;52.550;13.408;2023-07-16T15:27:16;27.70;3.80
3037;DHT22;1528;52.550;13.408;2023-07-16T15:30:01;27.70;3.50
3037;DHT22;1528;52.550;13.408;2023-07-16T15:32:48;27.70;3.30
3037;DHT22;1528;52.550;13.408;2023-07-16T15:35:33;27.60;2.90
3037;DHT22;1528;52.550;13.408;2023-07-16T15:38:20;27.70;4.30
3037;DHT22;1528;52.550;13.408;2023-07-16T15:41:06;27.70;4.10
3037;DHT22;1528;52.550;13.408;2023-07-16T15:43:52;27.70;4.40
3037;DHT22;1528;52.550;13.408;2023-07-16T15:46:38;27.70;3.50
3037;DHT22;1528;52.550;13.408;2023-07-16T15:49:25;27.80;4.00
3037;DHT22;1528;52.550;13.408;2023-07-16T15:52:11;27.70;2.50
3037;DHT22;1528;52.550;13.408;2023-07-16T15:54:56;27.70;2.30
3037;DHT22;1528;52.550;13.408;2023-07-16T15:57:42;27.70;3.20
3037;DHT22;1528;52.550;13.408;2023-07-16T16:00:28;27.70;2.60
3037;DHT22;1528;52.550;13.408;2023-07-16T16:03:13;27.70;2.60
3037;DHT22;1528;52.550;13.408;2023-07-16T16:06:01;27.60;2.30
3037;DHT22;1528;52.550;13.408;2023-07-16T16:08:47;27.60;2.90
3037;DHT22;1528;52.550;13.408;2023-07-16T16:11:32;27.60;2.80
3037;DHT22;1528;52.550;13.408;2023-07-16T16:14:18;27.60;2.70
3037;DHT22;1528;52.550;13.408;2023-07-16T16:17:04;27.60;2.90
3037;DHT22;1528;52.550;13.408;2023-07-16T16:19:49;27.60;3.50
3037;DHT22;1528;52.550;13.408;2023-07-16T16:22:36;27.70;3.20
3037;DHT22;1528;52.550;13.408;2023-07-16T16:25:23;27.70;2.90
3037;DHT22;1528;52.550;13.408;2023-07-16T16:28:09;27.70;2.20
3037;DHT22;1528;52.550;13.408;2023-07-16T16:30:55;27.60;2.20
3037;DHT22;1528;52.550;13.408;2023-07-16T16:33:41;27.60;2.30
3037;DHT22;1528;52.550;13.408;2023-07-16T16:36:27;27.60;1.90
3037;DHT22;1528;52.550;13.408;2023-07-16T16:39:14;27.60;1.90
3037;DHT22;1528;52.550;13.408;2023-07-16T16:41:59;27.60;2.90
3037;DHT22;1528;52.550;13.408;2023-07-16T16:44:45;27.50;4.20
3037;DHT22;1528;52.550;13.408;2023-07-16T16:47:31;27.50;3.50
3037;DHT22;1528;52.550;13.408;2023-07-16T16:50:17;27.50;3.20
3037;DHT22;1528;52.550;13.408;2023-07-16T16:53:04;27.50;3.70
3037;DHT22;1528;52.550;13.408;2023-07-16T16:55:51;27.50;2.80
3037;DHT22;1528;52.550;13.408;2023-07-16T16:58:37;27.40;2.80
3037;DHT22;1528;52.550;13.408;2023-07-16T17:01:22;27.40;2.80
3037;DHT22;1528;52.550;13.408;2023-07-16T17:04:08;27.40;2.80
3037;DHT22;1528;52.550;13.408;2023-07-16T17:06:53;27.40;3.00
3037;DHT22;1528;52.550;13.408;2023-07-16T17:09:42;27.50;2.80
3037;DHT22;1528;52.550;13.408;2023-07-16T17:12:29;27.50;3.20
3037;DHT22;1528;52.550;13.408;2023-07-16T17:15:15;27.60;3.50
3037;DHT22;1528;52.550;13.408;2023-07-16T17:18:00;27.70;3.80
3037;DHT22;1528;52.550;13.408;2023-07-16T17:20:46;27.80;3.50
3037;DHT22;1528;52.550;13.408;2023-07-16T17:23:32;27.80;3.80
3037;DHT22;1528;52.550;13.408;2023-07-16T17:26:18;27.90;3.40
3037;DHT22;1528;52.550;13.408;2023-07-16T17:29:05;27.90;3.70
3037;DHT22;1528;52.550;13.408;2023-07-16T17:31:51;27.90;4.00
3037;DHT22;1528;52.550;13.408;2023-07-16T17:34:36;28.00;4.10
3037;DHT22;1528;52.550;13.408;2023-07-16T17:37:24;28.00;2.40
3037;DHT22;1528;52.550;13.408;2023-07-16T17:40:11;28.00;1.50
3037;DHT22;1528;52.550;13.408;2023-07-16T17:42:57;28.00;1.30
3037;DHT22;1528;52.550;13.408;2023-07-16T17:45:44;28.00;1.30
3037;DHT22;1528;52.550;13.408;2023-07-16T17:48:30;28.00;1.00
3037;DHT22;1528;52.550;13.408;2023-07-16T17:51:16;28.00;1.00
3037;DHT22;1528;52.550;13.408;2023-07-16T17:54:02;28.00;1.00
3037;DHT22;1528;52.550;13.408;2023-07-16T17:56:48;28.00;1.00
3037;DHT22;1528;52.550;13.408;2023-07-16T17:59:36;28.00;1.00
3037;DHT22;1528;52.550;13.408;2023-07-16T18:02:23;28.00;1.00
3037;DHT22;1528;52.550;13.408;2023-07-16T18:05:09;27.90;1.00
3037;DHT22;1528;52.550;13.408;2023-07-16T18:07:54;28.00;1.00
3037;DHT22;1528;52.550;13.408;2023-07-16T18:10:40;27.90;1.00
3037;DHT22;1528;52.550;13.408;2023-07-16T18:13:27;28.00;1.00
3037;DHT22;1528;52.550;13.408;2023-07-16T18:16:13;28.00;1.00
3037;DHT22;1528;52.550;13.408;2023-07-16T18:19:00;28.00;1.00
3037;DHT22;1528;52.550;13.408;2023-07-16T18:21:46;28.00;1.00
3037;DHT22;1528;52.550;13.408;2023-07-16T18:24:32;28.00;1.00
3037;DHT22;1528;52.550;13.408;2023-07-16T18:27:17;28.00;1.00
3037;DHT22;1528;52.550;13.408;2023-07-16T18:30:05;28.10;1.00
3037;DHT22;1528;52.550;13.408;2023-07-16T18:32:50;28.10;1.00
3037;DHT22;1528;52.550;13.408;2023-07-16T18:35:38;28.10;1.00
3037;DHT22;1528;52.550;13.408;2023-07-16T18:38:24;28.10;1.00
3037;DHT22;1528;52.550;13.408;2023-07-16T18:41:10;28.10;1.00
3037;DHT22;1528;52.550;13.408;2023-07-16T18:43:56;28.20;1.00
3037;DHT22;1528;52.550;13.408;2023-07-16T18:46:42;28.10;1.00
3037;DHT22;1528;52.550;13.408;2023-07-16T18:49:29;28.10;1.00
3037;DHT22;1528;52.550;13.408;2023-07-16T18:52:17;28.10;1.00
3037;DHT22;1528;52.550;13.408;2023-07-16T18:55:04;28.10;1.00
3037;DHT22;1528;52.550;13.408;2023-07-16T18:57:50;28.00;1.00
3037;DHT22;1528;52.550;13.408;2023-07-16T19:00:37;27.90;1.40
3037;DHT22;1528;52.550;13.408;2023-07-16T19:03:24;28.00;1.00
3037;DHT22;1528;52.550;13.408;2023-07-16T19:06:10;28.00;1.00
3037;DHT22;1528;52.550;13.408;2023-07-16T19:08:58;27.90;1.00
3037;DHT22;1528;52.550;13.408;2023-07-16T19:11:45;28.00;1.00
3037;DHT22;1528;52.550;13.408;2023-07-16T19:14:31;27.90;1.00
3037;DHT22;1528;52.550;13.408;2023-07-16T19:17:18;27.90;1.00
3037;DHT22;1528;52.550;13.408;2023-07-16T19:20:10;27.90;1.40
3037;DHT22;1528;52.550;13.408;2023-07-16T19:22:56;27.90;1.30
3037;DHT22;1528;52.550;13.408;2023-07-16T19:25:44;27.90;1.20
3037;DHT22;1528;52.550;13.408;2023-07-16T19:28:29;27.90;1.60
3037;DHT22;1528;52.550;13.408;2023-07-16T19:31:15;27.80;1.50
3037;DHT22;1528;52.550;13.408;2023-07-16T19:34:01;27.80;2.00
3037;DHT22;1528;52.550;13.408;2023-07-16T19:36:47;27.80;1.80
3037;DHT22;1528;52.550;13.408;2023-07-16T19:39:33;27.80;1.80
3037;DHT22;1528;52.550;13.408;2023-07-16T19:42:19;27.80;1.80
3037;DHT22;1528;52.550;13.408;2023-07-16T19:45:06;27.80;1.80
3037;DHT22;1528;52.550;13.408;2023-07-16T19:47:52;27.80;1.60
3037;DHT22;1528;52.550;13.408;2023-07-16T19:50:37;27.80;1.20
3037;DHT22;1528;52.550;13.408;2023-07-16T19:53:23;27.80;1.70
3037;DHT22;1528;52.550;13.408;2023-07-16T19:56:09;27.80;1.60
3037;DHT22;1528;52.550;13.408;2023-07-16T19:58:56;27.80;1.70
3037;DHT22;1528;52.550;13.408;2023-07-16T20:01:41;27.70;1.60
3037;DHT22;1528;52.550;13.408;2023-07-16T20:04:27;27.70;1.70
3037;DHT22;1528;52.550;13.408;2023-07-16T20:07:13;27.70;1.90
3037;DHT22;1528;52.550;13.408;2023-07-16T20:09:58;27.70;1.70
3037;DHT22;1528;52.550;13.408;2023-07-16T20:12:44;27.70;1.30
3037;DHT22;1528;52.550;13.408;2023-07-16T20:15:32;27.60;1.20
3037;DHT22;1528;52.550;13.408;2023-07-16T20:18:17;27.50;2.10
3037;DHT22;1528;52.550;13.408;2023-07-16T20:21:03;27.50;2.00
3037;DHT22;1528;52.550;13.408;2023-07-16T20:23:49;27.50;2.00
3037;DHT22;1528;52.550;13.408;2023-07-16T20:26:34;27.50;2.10
3037;DHT22;1528;52.550;13.408;2023-07-16T20:29:20;27.50;2.20
3037;DHT22;1528;52.550;13.408;2023-07-16T20:32:08;27.40;1.90
3037;DHT22;1528;52.550;13.408;2023-07-16T20:34:54;27.40;2.10
3037;DHT22;1528;52.550;13.408;2023-07-16T20:37:39;27.40;2.20
3037;DHT22;1528;52.550;13.408;2023-07-16T20:40:25;27.40;2.30
3037;DHT22;1528;52.550;13.408;2023-07-16T20:43:14;27.30;2.10
3037;DHT22;1528;52.550;13.408;2023-07-16T20:46:00;27.10;2.20
3037;DHT22;1528;52.550;13.408;2023-07-16T20:48:47;27.10;2.50
3037;DHT22;1528;52.550;13.408;2023-07-16T20:51:33;27.00;2.60
3037;DHT22;1528;52.550;13.408;2023-07-16T20:54:18;26.90;2.60
3037;DHT22;1528;52.550;13.408;2023-07-16T20:57:05;26.90;2.60
3037;DHT22;1528;52.550;13.408;2023-07-16T20:59:50;26.80;2.70
3037;DHT22;1528;52.550;13.408;2023-07-16T21:02:36;26.80;3.00
3037;DHT22;1528;52.550;13.408;2023-07-16T21:05:24;26.70;3.20
3037;DHT22;1528;52.550;13.408;2023-07-16T21:08:10;26.70;3.40
3037;DHT22;1528;52.550;13.408;2023-07-16T21:10:56;26.70;3.30
3037;DHT22;1528;52.550;13.408;2023-07-16T21:13:41;26.70;3.40
3037;DHT22;1528;52.550;13.408;2023-07-16T21:16:27;26.60;3.50
3037;DHT22;1528;52.550;13.408;2023-07-16T21:19:13;26.60;3.70
3037;DHT22;1528;52.550;13.408;2023-07-16T21:22:00;26.60;3.80
3037;DHT22;1528;52.550;13.408;2023-07-16T21:24:45;26.50;4.00
3037;DHT22;1528;52.550;13.408;2023-07-16T21:27:34;26.50;4.30
3037;DHT22;1528;52.550;13.408;2023-07-16T21:30:24;26.50;4.30
3037;DHT22;1528;52.550;13.408;2023-07-16T21:33:10;26.40;4.30
3037;DHT22;1528;52.550;13.408;2023-07-16T21:35:55;26.40;4.30
3037;DHT22;1528;52.550;13.408;2023-07-16T21:38:43;26.40;4.50
3037;DHT22;1528;52.550;13.408;2023-07-16T21:41:28;26.30;4.50
3037;DHT22;1528;52.550;13.408;2023-07-16T21:44:13;26.30;4.40
3037;DHT22;1528;52.550;13.408;2023-07-16T21:46:59;26.30;4.80
3037;DHT22;1528;52.550;13.408;2023-07-16T21:49:45;26.20;4.70
3037;DHT22;1528;52.550;13.408;2023-07-16T21:52:31;26.30;4.90
3037;DHT22;1528;52.550;13.408;2023-07-16T21:55:18;26.20;4.90
3037;DHT22;1528;52.550;13.408;2023-07-16T21:58:04;26.20;4.90
3037;DHT22;1528;52.550;13.408;2023-07-16T22:00:49;26.10;4.80
3037;DHT22;1528;52.550;13.408;2023-07-16T22:03:35;26.10;5.00
3037;DHT22;1528;52.550;13.408;2023-07-16T22:06:21;26.10;5.00
3037;DHT22;1528;52.550;13.408;2023-07-16T22:09:07;26.00;5.00
3037;DHT22;1528;52.550;13.408;2023-07-16T22:11:54;26.00;5.10
3037;DHT22;1528;52.550;13.408;2023-07-16T22:14:40;26.00;5.10
3037;DHT22;1528;52.550;13.408;2023-07-16T22:17:25;26.00;5.40
3037;DHT22;1528;52.550;13.408;2023-07-16T22:20:11;25.90;5.40
3037;DHT22;1528;52.550;13.408;2023-07-16T22:22:57;25.90;5.70
3037;DHT22;1528;52.550;13.408;2023-07-16T22:25:42;25.90;6.00
3037;DHT22;1528;52.550;13.408;2023-07-16T22:28:30;25.90;6.20
3037;DHT22;1528;52.550;13.408;2023-07-16T22:31:15;25.90;6.40
3037;DHT22;1528;52.550;13.408;2023-07-16T22:34:01;25.80;6.30
3037;DHT22;1528;52.550;13.408;2023-07-16T22:36:47;25.80;7.10
3037;DHT22;1528;52.550;13.408;2023-07-16T22:39:33;25.70;6.40
3037;DHT22;1528;52.550;13.408;2023-07-16T22:42:18;25.70;6.60
3037;DHT22;1528;52.550;13.408;2023-07-16T22:45:07;25.70;6.80
3037;DHT22;1528;52.550;13.408;2023-07-16T22:47:53;25.70;6.80
3037;DHT22;1528;52.550;13.408;2023-07-16T22:50:39;25.70;6.80
3037;DHT22;1528;52.550;13.408;2023-07-16T22:53:24;25.70;7.00
3037;DHT22;1528;52.550;13.408;2023-07-16T22:56:10;25.60;7.10
3037;DHT22;1528;52.550;13.408;2023-07-16T22:58:55;25.60;7.10
3037;DHT22;1528;52.550;13.408;2023-07-16T23:01:42;25.60;7.10
3037;DHT22;1528;52.550;13.408;2023-07-16T23:04:28;25.60;7.10
3037;DHT22;1528;52.550;13.408;2023-07-16T23:07:13;25.50;7.10
3037;DHT22;1528;52.550;13.408;2023-07-16T23:09:59;25.50;7.00
3037;DHT22;1528;52.550;13.408;2023-07-16T23:12:45;25.50;7.00
3037;DHT22;1528;52.550;13.408;2023-07-16T23:15:30;25.50;7.10
3037;DHT22;1528;52.550;13.408;2023-07-16T23:18:17;25.40;7.00
3037;DHT22;1528;52.550;13.408;2023-07-16T23:21:03;25.40;7.20
3037;DHT22;1528;52.550;13.408;2023-07-16T23:23:48;25.40;7.30
3037;DHT22;1528;52.550;13.408;2023-07-16T23:26:34;25.40;7.30
3037;DHT22;1528;52.550;13.408;2023-07-16T23:29:19;25.40;7.40
3037;DHT22;1528;52.550;13.408;2023-07-16T23:32:05;25.40;7.40
3037;DHT22;1528;52.550;13.408;2023-07-16T23:34:52;25.30;7.90
3037;DHT22;1528;52.550;13.408;2023-07-16T23:37:37;25.30;7.40
3037;DHT22;1528;52.550;13.408;2023-07-16T23:40:23;25.30;7.50
3037;DHT22;1528;52.550;13.408;2023-07-16T23:43:08;25.30;7.70
3037;DHT22;1528;52.550;13.408;2023-07-16T23:45:54;25.30;7.80
3037;DHT22;1528;52.550;13.408;2023-07-16T23:48:40;25.30;7.90
3037;DHT22;1528;52.550;13.408;2023-07-16T23:51:27;25.30;7.90
3037;DHT22;1528;52.550;13.408;2023-07-16T23:54:12;25.20;8.00
3037;DHT22;1528;52.550;13.408;2023-07-16T23:56:58;25.30;8.00
3037;DHT22;1528;52.550;13.408;2023-07-16T23:59:43;25.20;8.10
